sensor_id;sensor_type;location;lat;lon;timestamp;P1;durP1;ratioP1;P2;durP2;ratioP2
77838;SDS011;67034;43.226;27.932;2023-04-01T00:01:10;5.97;;;4.13;;
77838;SDS011;67034;43.226;27.932;2023-04-01T00:03:39;7.05;;;3.65;;
77838;SDS011;67034;43.226;27.932;2023-04-01T00:06:06;7.70;;;3.75;;
77838;SDS011;67034;43.226;27.932;2023-04-01T00:08:32;5.95;;;4.55;;
77838;SDS011;67034;43.226;27.932;2023-04-01T00:10:57;10.05;;;3.95;;
77838;SDS011;67034;43.226;27.932;2023-04-01T00:13:24;6.75;;;4.30;;
77838;SDS011;67034;43.226;27.932;2023-04-01T00:15:51;7.85;;;4.28;;
77838;SDS011;67034;43.226;27.932;2023-04-01T00:18:17;8.93;;;4.10;;
77838;SDS011;67034;43.226;27.932;2023-04-01T00:20:43;5.50;;;3.85;;
77838;SDS011;67034;43.226;27.932;2023-04-01T00:23:11;6.32;;;3.80;;
77838;SDS011;67034;43.226;27.932;2023-04-01T00:25:40;8.25;;;4.10;;
77838;SDS011;67034;43.226;27.932;2023-04-01T00:28:05;7.35;;;4.25;;
77838;SDS011;67034;43.226;27.932;2023-04-01T00:30:31;6.55;;;3.90;;
77838;SDS011;67034;43.226;27.932;2023-04-01T00:32:57;7.50;;;3.97;;
77838;SDS011;67034;43.226;27.932;2023-04-01T00:35:23;5.97;;;4.28;;
77838;SDS011;67034;43.226;27.932;2023-04-01T00:37:48;6.82;;;4.07;;
77838;SDS011;67034;43.226;27.932;2023-04-01T00:40:22;7.28;;;4.75;;
77838;SDS011;67034;43.226;27.932;2023-04-01T00:42:51;6.03;;;3.92;;
77838;SDS011;67034;43.226;27.932;2023-04-01T00:45:27;7.43;;;3.85;;
77838;SDS011;67034;43.226;27.932;2023-04-01T00:47:56;6.88;;;3.72;;
77838;SDS011;67034;43.226;27.932;2023-04-01T00:50:25;7.75;;;4.28;;
77838;SDS011;67034;43.226;27.932;2023-04-01T00:52:53;7.60;;;4.03;;
77838;SDS011;67034;43.226;27.932;2023-04-01T00:55:19;6.40;;;3.70;;
77838;SDS011;67034;43.226;27.932;2023-04-01T00:57:48;7.82;;;4.13;;
77838;SDS011;67034;43.226;27.932;2023-04-01T01:00:16;7.05;;;4.05;;
77838;SDS011;67034;43.226;27.932;2023-04-01T01:02:43;4.43;;;3.35;;
77838;SDS011;67034;43.226;27.932;2023-04-01T01:05:11;5.88;;;3.70;;
77838;SDS011;67034;43.226;27.932;2023-04-01T01:07:39;5.72;;;3.42;;
77838;SDS011;67034;43.226;27.932;2023-04-01T01:10:12;5.10;;;3.88;;
77838;SDS011;67034;43.226;27.932;2023-04-01T01:12:45;6.05;;;4.18;;
77838;SDS011;67034;43.226;27.932;2023-04-01T01:15:17;7.57;;;4.57;;
77838;SDS011;67034;43.226;27.932;2023-04-01T01:17:51;8.38;;;5.18;;
77838;SDS011;67034;43.226;27.932;2023-04-01T01:29:44;9.32;;;4.10;;
77838;SDS011;67034;43.226;27.932;2023-04-01T01:32:38;4.90;;;3.30;;
77838;SDS011;67034;43.226;27.932;2023-04-01T01:35:22;4.32;;;3.13;;
77838;SDS011;67034;43.226;27.932;2023-04-01T01:37:51;5.38;;;3.50;;
77838;SDS011;67034;43.226;27.932;2023-04-01T01:40:20;3.97;;;3.20;;
77838;SDS011;67034;43.226;27.932;2023-04-01T01:42:48;6.53;;;3.75;;
77838;SDS011;67034;43.226;27.932;2023-04-01T01:45:18;9.63;;;4.05;;
77838;SDS011;67034;43.226;27.932;2023-04-01T01:47:46;6.22;;;3.90;;
77838;SDS011;67034;43.226;27.932;2023-04-01T01:50:14;9.02;;;4.45;;
77838;SDS011;67034;43.226;27.932;2023-04-01T01:52:42;5.38;;;3.78;;
77838;SDS011;67034;43.226;27.932;2023-04-01T01:55:22;6.20;;;4.15;;
77838;SDS011;67034;43.226;27.932;2023-04-01T01:57:51;5.35;;;3.72;;
77838;SDS011;67034;43.226;27.932;2023-04-01T02:00:17;6.28;;;3.78;;
77838;SDS011;67034;43.226;27.932;2023-04-01T02:02:45;6.35;;;3.53;;
77838;SDS011;67034;43.226;27.932;2023-04-01T02:05:14;6.03;;;3.22;;
77838;SDS011;67034;43.226;27.932;2023-04-01T02:07:45;4.78;;;3.33;;
77838;SDS011;67034;43.226;27.932;2023-04-01T02:10:14;4.82;;;3.38;;
77838;SDS011;67034;43.226;27.932;2023-04-01T02:12:40;9.32;;;3.90;;
77838;SDS011;67034;43.226;27.932;2023-04-01T02:15:12;7.25;;;4.88;;
77838;SDS011;67034;43.226;27.932;2023-04-01T02:17:40;9.05;;;4.45;;
77838;SDS011;67034;43.226;27.932;2023-04-01T02:20:11;7.03;;;3.63;;
77838;SDS011;67034;43.226;27.932;2023-04-01T02:22:41;7.80;;;3.97;;
77838;SDS011;67034;43.226;27.932;2023-04-01T02:25:12;7.50;;;4.20;;
77838;SDS011;67034;43.226;27.932;2023-04-01T02:27:39;7.32;;;3.55;;
77838;SDS011;67034;43.226;27.932;2023-04-01T02:30:06;6.60;;;4.28;;
77838;SDS011;67034;43.226;27.932;2023-04-01T02:32:32;7.28;;;4.25;;
77838;SDS011;67034;43.226;27.932;2023-04-01T02:35:00;8.57;;;4.15;;
77838;SDS011;67034;43.226;27.932;2023-04-01T02:37:30;6.78;;;4.22;;
77838;SDS011;67034;43.226;27.932;2023-04-01T02:39:58;7.10;;;4.22;;
77838;SDS011;67034;43.226;27.932;2023-04-01T02:42:26;9.75;;;4.57;;
77838;SDS011;67034;43.226;27.932;2023-04-01T02:44:52;7.60;;;4.05;;
77838;SDS011;67034;43.226;27.932;2023-04-01T02:47:18;6.07;;;3.50;;
77838;SDS011;67034;43.226;27.932;2023-04-01T02:49:44;7.45;;;4.00;;
77838;SDS011;67034;43.226;27.932;2023-04-01T02:52:09;5.28;;;3.35;;
77838;SDS011;67034;43.226;27.932;2023-04-01T02:54:35;6.72;;;3.83;;
77838;SDS011;67034;43.226;27.932;2023-04-01T02:57:01;5.18;;;3.47;;
77838;SDS011;67034;43.226;27.932;2023-04-01T02:59:28;5.45;;;3.50;;
77838;SDS011;67034;43.226;27.932;2023-04-01T03:01:54;4.53;;;3.13;;
77838;SDS011;67034;43.226;27.932;2023-04-01T03:04:20;5.60;;;3.50;;
77838;SDS011;67034;43.226;27.932;2023-04-01T03:06:45;6.07;;;3.60;;
77838;SDS011;67034;43.226;27.932;2023-04-01T03:09:11;5.43;;;3.28;;
77838;SDS011;67034;43.226;27.932;2023-04-01T03:11:37;4.78;;;3.03;;
77838;SDS011;67034;43.226;27.932;2023-04-01T03:14:02;4.63;;;3.17;;
77838;SDS011;67034;43.226;27.932;2023-04-01T03:16:29;4.55;;;3.05;;
77838;SDS011;67034;43.226;27.932;2023-04-01T03:18:55;5.20;;;3.53;;
77838;SDS011;67034;43.226;27.932;2023-04-01T03:21:24;6.63;;;3.22;;
77838;SDS011;67034;43.226;27.932;2023-04-01T03:23:50;7.10;;;3.38;;
77838;SDS011;67034;43.226;27.932;2023-04-01T03:26:16;5.63;;;3.30;;
77838;SDS011;67034;43.226;27.932;2023-04-01T03:28:42;10.15;;;3.60;;
77838;SDS011;67034;43.226;27.932;2023-04-01T03:31:08;5.55;;;3.03;;
77838;SDS011;67034;43.226;27.932;2023-04-01T03:33:35;6.38;;;3.25;;
77838;SDS011;67034;43.226;27.932;2023-04-01T03:36:02;8.13;;;3.13;;
77838;SDS011;67034;43.226;27.932;2023-04-01T03:38:31;3.63;;;2.75;;
77838;SDS011;67034;43.226;27.932;2023-04-01T03:40:57;7.75;;;2.88;;
77838;SDS011;67034;43.226;27.932;2023-04-01T03:43:22;5.28;;;3.40;;
77838;SDS011;67034;43.226;27.932;2023-04-01T03:45:49;5.07;;;2.80;;
77838;SDS011;67034;43.226;27.932;2023-04-01T03:48:16;7.07;;;3.85;;
77838;SDS011;67034;43.226;27.932;2023-04-01T03:50:43;5.00;;;3.17;;
77838;SDS011;67034;43.226;27.932;2023-04-01T03:53:10;4.97;;;3.38;;
77838;SDS011;67034;43.226;27.932;2023-04-01T03:55:36;4.07;;;2.75;;
77838;SDS011;67034;43.226;27.932;2023-04-01T03:58:02;6.05;;;3.25;;
77838;SDS011;67034;43.226;27.932;2023-04-01T04:00:29;4.70;;;3.72;;
77838;SDS011;67034;43.226;27.932;2023-04-01T04:02:55;9.23;;;6.80;;
77838;SDS011;67034;43.226;27.932;2023-04-01T04:05:21;5.28;;;3.53;;
77838;SDS011;67034;43.226;27.932;2023-04-01T04:07:48;13.13;;;8.75;;
77838;SDS011;67034;43.226;27.932;2023-04-01T04:10:14;7.35;;;4.80;;
77838;SDS011;67034;43.226;27.932;2023-04-01T04:12:40;13.40;;;11.85;;
77838;SDS011;67034;43.226;27.932;2023-04-01T04:15:06;6.88;;;4.00;;
77838;SDS011;67034;43.226;27.932;2023-04-01T04:17:32;7.68;;;3.70;;
77838;SDS011;67034;43.226;27.932;2023-04-01T04:19:57;10.27;;;7.15;;
77838;SDS011;67034;43.226;27.932;2023-04-01T04:22:23;9.80;;;4.93;;
77838;SDS011;67034;43.226;27.932;2023-04-01T04:24:50;7.03;;;4.93;;
77838;SDS011;67034;43.226;27.932;2023-04-01T04:27:16;7.03;;;5.07;;
77838;SDS011;67034;43.226;27.932;2023-04-01T04:29:42;6.43;;;3.83;;
77838;SDS011;67034;43.226;27.932;2023-04-01T04:32:08;9.63;;;4.60;;
77838;SDS011;67034;43.226;27.932;2023-04-01T04:34:34;6.60;;;3.45;;
77838;SDS011;67034;43.226;27.932;2023-04-01T04:36:59;8.27;;;4.40;;
77838;SDS011;67034;43.226;27.932;2023-04-01T04:39:25;7.78;;;4.82;;
77838;SDS011;67034;43.226;27.932;2023-04-01T04:41:52;9.10;;;4.10;;
77838;SDS011;67034;43.226;27.932;2023-04-01T04:44:18;7.38;;;4.10;;
77838;SDS011;67034;43.226;27.932;2023-04-01T04:46:44;5.53;;;3.45;;
77838;SDS011;67034;43.226;27.932;2023-04-01T04:49:10;8.88;;;3.70;;
77838;SDS011;67034;43.226;27.932;2023-04-01T04:51:36;7.55;;;4.20;;
77838;SDS011;67034;43.226;27.932;2023-04-01T04:54:02;6.45;;;4.32;;
77838;SDS011;67034;43.226;27.932;2023-04-01T04:56:29;5.63;;;4.28;;
77838;SDS011;67034;43.226;27.932;2023-04-01T04:58:57;5.18;;;3.50;;
77838;SDS011;67034;43.226;27.932;2023-04-01T05:01:23;6.32;;;4.20;;
77838;SDS011;67034;43.226;27.932;2023-04-01T05:03:49;8.65;;;3.80;;
77838;SDS011;67034;43.226;27.932;2023-04-01T05:06:15;6.07;;;3.97;;
77838;SDS011;67034;43.226;27.932;2023-04-01T05:08:41;6.22;;;3.65;;
77838;SDS011;67034;43.226;27.932;2023-04-01T05:11:09;5.60;;;3.67;;
77838;SDS011;67034;43.226;27.932;2023-04-01T05:13:36;9.60;;;4.30;;
77838;SDS011;67034;43.226;27.932;2023-04-01T05:16:07;9.68;;;5.03;;
77838;SDS011;67034;43.226;27.932;2023-04-01T05:18:33;6.53;;;3.67;;
77838;SDS011;67034;43.226;27.932;2023-04-01T05:20:59;6.50;;;4.40;;
77838;SDS011;67034;43.226;27.932;2023-04-01T05:23:25;7.65;;;4.32;;
77838;SDS011;67034;43.226;27.932;2023-04-01T05:25:51;8.15;;;4.78;;
77838;SDS011;67034;43.226;27.932;2023-04-01T05:28:18;8.43;;;4.57;;
77838;SDS011;67034;43.226;27.932;2023-04-01T05:30:44;5.85;;;3.97;;
77838;SDS011;67034;43.226;27.932;2023-04-01T05:33:12;8.15;;;4.18;;
77838;SDS011;67034;43.226;27.932;2023-04-01T05:35:38;6.43;;;4.80;;
77838;SDS011;67034;43.226;27.932;2023-04-01T05:38:04;8.35;;;4.75;;
77838;SDS011;67034;43.226;27.932;2023-04-01T05:40:31;6.90;;;4.43;;
77838;SDS011;67034;43.226;27.932;2023-04-01T05:42:57;7.03;;;4.82;;
77838;SDS011;67034;43.226;27.932;2023-04-01T05:45:23;7.85;;;5.25;;
77838;SDS011;67034;43.226;27.932;2023-04-01T05:47:49;9.48;;;4.93;;
77838;SDS011;67034;43.226;27.932;2023-04-01T05:50:16;10.18;;;6.72;;
77838;SDS011;67034;43.226;27.932;2023-04-01T05:52:42;8.77;;;4.38;;
77838;SDS011;67034;43.226;27.932;2023-04-01T05:55:09;5.90;;;4.30;;
77838;SDS011;67034;43.226;27.932;2023-04-01T05:57:35;7.95;;;4.82;;
77838;SDS011;67034;43.226;27.932;2023-04-01T06:00:01;11.18;;;4.30;;
77838;SDS011;67034;43.226;27.932;2023-04-01T06:02:27;13.75;;;6.40;;
77838;SDS011;67034;43.226;27.932;2023-04-01T06:04:53;8.30;;;4.05;;
77838;SDS011;67034;43.226;27.932;2023-04-01T06:07:35;7.70;;;4.72;;
77838;SDS011;67034;43.226;27.932;2023-04-01T06:10:01;14.95;;;5.57;;
77838;SDS011;67034;43.226;27.932;2023-04-01T06:12:32;13.15;;;6.82;;
77838;SDS011;67034;43.226;27.932;2023-04-01T06:15:10;8.65;;;5.95;;
77838;SDS011;67034;43.226;27.932;2023-04-01T06:17:47;18.23;;;9.90;;
77838;SDS011;67034;43.226;27.932;2023-04-01T06:20:25;11.05;;;7.05;;
77838;SDS011;67034;43.226;27.932;2023-04-01T06:25:53;10.57;;;5.00;;
77838;SDS011;67034;43.226;27.932;2023-04-01T06:28:35;9.55;;;6.85;;
77838;SDS011;67034;43.226;27.932;2023-04-01T06:31:14;17.67;;;8.98;;
77838;SDS011;67034;43.226;27.932;2023-04-01T06:34:01;22.40;;;10.43;;
77838;SDS011;67034;43.226;27.932;2023-04-01T06:36:47;10.30;;;7.10;;
77838;SDS011;67034;43.226;27.932;2023-04-01T06:39:39;11.25;;;5.00;;
77838;SDS011;67034;43.226;27.932;2023-04-01T06:42:15;12.13;;;5.43;;
77838;SDS011;67034;43.226;27.932;2023-04-01T06:44:52;10.43;;;5.32;;
77838;SDS011;67034;43.226;27.932;2023-04-01T06:47:28;8.75;;;5.25;;
77838;SDS011;67034;43.226;27.932;2023-04-01T06:50:04;12.10;;;4.97;;
77838;SDS011;67034;43.226;27.932;2023-04-01T06:52:38;17.08;;;5.85;;
77838;SDS011;67034;43.226;27.932;2023-04-01T06:55:16;41.85;;;22.73;;
77838;SDS011;67034;43.226;27.932;2023-04-01T06:57:50;15.10;;;7.82;;
77838;SDS011;67034;43.226;27.932;2023-04-01T07:00:22;20.00;;;7.57;;
77838;SDS011;67034;43.226;27.932;2023-04-01T07:05:20;12.10;;;5.80;;
77838;SDS011;67034;43.226;27.932;2023-04-01T07:07:48;8.48;;;4.10;;
77838;SDS011;67034;43.226;27.932;2023-04-01T07:10:25;8.95;;;4.68;;
77838;SDS011;67034;43.226;27.932;2023-04-01T07:12:56;10.25;;;4.90;;
77838;SDS011;67034;43.226;27.932;2023-04-01T07:15:26;9.70;;;5.82;;
77838;SDS011;67034;43.226;27.932;2023-04-01T07:17:56;12.65;;;5.57;;
77838;SDS011;67034;43.226;27.932;2023-04-01T07:20:27;9.55;;;4.68;;
77838;SDS011;67034;43.226;27.932;2023-04-01T07:22:56;11.02;;;5.32;;
77838;SDS011;67034;43.226;27.932;2023-04-01T07:25:27;12.82;;;7.68;;
77838;SDS011;67034;43.226;27.932;2023-04-01T07:27:56;14.93;;;7.07;;
77838;SDS011;67034;43.226;27.932;2023-04-01T07:30:28;21.38;;;9.80;;
77838;SDS011;67034;43.226;27.932;2023-04-01T07:33:07;19.73;;;8.00;;
77838;SDS011;67034;43.226;27.932;2023-04-01T07:35:40;13.23;;;7.38;;
77838;SDS011;67034;43.226;27.932;2023-04-01T07:38:15;15.73;;;7.45;;
77838;SDS011;67034;43.226;27.932;2023-04-01T07:40:51;28.50;;;19.35;;
77838;SDS011;67034;43.226;27.932;2023-04-01T07:46:20;10.75;;;6.32;;
77838;SDS011;67034;43.226;27.932;2023-04-01T07:51:24;6.13;;;4.18;;
77838;SDS011;67034;43.226;27.932;2023-04-01T07:53:58;16.13;;;5.90;;
77838;SDS011;67034;43.226;27.932;2023-04-01T07:56:35;35.35;;;14.30;;
77838;SDS011;67034;43.226;27.932;2023-04-01T07:59:07;23.52;;;11.20;;
77838;SDS011;67034;43.226;27.932;2023-04-01T08:01:41;18.33;;;9.38;;
77838;SDS011;67034;43.226;27.932;2023-04-01T08:04:21;20.85;;;8.30;;
77838;SDS011;67034;43.226;27.932;2023-04-01T08:06:54;10.13;;;5.47;;
77838;SDS011;67034;43.226;27.932;2023-04-01T08:09:30;10.27;;;4.43;;
77838;SDS011;67034;43.226;27.932;2023-04-01T08:12:07;15.88;;;6.88;;
77838;SDS011;67034;43.226;27.932;2023-04-01T08:14:46;15.00;;;6.00;;
77838;SDS011;67034;43.226;27.932;2023-04-01T08:17:19;6.95;;;4.28;;
77838;SDS011;67034;43.226;27.932;2023-04-01T08:19:56;14.40;;;6.78;;
77838;SDS011;67034;43.226;27.932;2023-04-01T08:22:33;13.82;;;5.68;;
77838;SDS011;67034;43.226;27.932;2023-04-01T08:25:05;11.13;;;4.70;;
77838;SDS011;67034;43.226;27.932;2023-04-01T08:27:37;9.65;;;4.05;;
77838;SDS011;67034;43.226;27.932;2023-04-01T08:30:14;9.10;;;4.78;;
77838;SDS011;67034;43.226;27.932;2023-04-01T08:32:43;14.65;;;6.88;;
77838;SDS011;67034;43.226;27.932;2023-04-01T08:35:14;10.45;;;5.18;;
77838;SDS011;67034;43.226;27.932;2023-04-01T08:37:44;7.45;;;4.28;;
77838;SDS011;67034;43.226;27.932;2023-04-01T08:40:16;20.15;;;8.10;;
77838;SDS011;67034;43.226;27.932;2023-04-01T08:43:04;8.13;;;4.38;;
77838;SDS011;67034;43.226;27.932;2023-04-01T08:45:48;7.68;;;4.70;;
77838;SDS011;67034;43.226;27.932;2023-04-01T08:48:34;9.27;;;5.45;;
77838;SDS011;67034;43.226;27.932;2023-04-01T08:51:25;15.88;;;5.45;;
77838;SDS011;67034;43.226;27.932;2023-04-01T08:57:04;7.03;;;4.30;;
77838;SDS011;67034;43.226;27.932;2023-04-01T08:59:42;11.50;;;5.85;;
77838;SDS011;67034;43.226;27.932;2023-04-01T09:02:21;18.88;;;7.57;;
77838;SDS011;67034;43.226;27.932;2023-04-01T09:05:21;12.90;;;5.38;;
77838;SDS011;67034;43.226;27.932;2023-04-01T09:07:59;17.02;;;7.50;;
77838;SDS011;67034;43.226;27.932;2023-04-01T09:10:47;13.40;;;5.95;;
77838;SDS011;67034;43.226;27.932;2023-04-01T09:13:37;10.23;;;4.85;;
77838;SDS011;67034;43.226;27.932;2023-04-01T09:21:59;13.95;;;6.28;;
77838;SDS011;67034;43.226;27.932;2023-04-01T09:27:41;20.90;;;8.00;;
77838;SDS011;67034;43.226;27.932;2023-04-01T09:30:17;16.92;;;9.18;;
77838;SDS011;67034;43.226;27.932;2023-04-01T09:33:11;16.25;;;7.97;;
77838;SDS011;67034;43.226;27.932;2023-04-01T09:35:58;9.77;;;5.45;;
77838;SDS011;67034;43.226;27.932;2023-04-01T09:38:35;15.75;;;6.97;;
77838;SDS011;67034;43.226;27.932;2023-04-01T09:41:10;13.65;;;5.85;;
77838;SDS011;67034;43.226;27.932;2023-04-01T09:43:51;12.05;;;5.82;;
77838;SDS011;67034;43.226;27.932;2023-04-01T09:46:27;12.63;;;5.05;;
77838;SDS011;67034;43.226;27.932;2023-04-01T09:49:32;12.20;;;5.28;;
77838;SDS011;67034;43.226;27.932;2023-04-01T09:52:11;12.50;;;4.93;;
77838;SDS011;67034;43.226;27.932;2023-04-01T09:54:50;8.95;;;4.72;;
77838;SDS011;67034;43.226;27.932;2023-04-01T09:57:33;13.45;;;5.38;;
77838;SDS011;67034;43.226;27.932;2023-04-01T10:06:53;18.63;;;6.97;;
77838;SDS011;67034;43.226;27.932;2023-04-01T10:09:36;16.75;;;7.20;;
77838;SDS011;67034;43.226;27.932;2023-04-01T10:12:38;14.80;;;7.40;;
77838;SDS011;67034;43.226;27.932;2023-04-01T10:15:22;17.10;;;8.52;;
77838;SDS011;67034;43.226;27.932;2023-04-01T10:18:05;18.17;;;6.50;;
77838;SDS011;67034;43.226;27.932;2023-04-01T10:21:04;16.67;;;8.13;;
77838;SDS011;67034;43.226;27.932;2023-04-01T10:24:01;21.27;;;9.18;;
77838;SDS011;67034;43.226;27.932;2023-04-01T10:38:58;23.45;;;9.98;;
77838;SDS011;67034;43.226;27.932;2023-04-01T10:41:58;20.48;;;8.07;;
77838;SDS011;67034;43.226;27.932;2023-04-01T10:44:50;21.02;;;9.38;;
77838;SDS011;67034;43.226;27.932;2023-04-01T10:47:51;23.02;;;9.23;;
77838;SDS011;67034;43.226;27.932;2023-04-01T10:50:51;26.02;;;9.40;;
77838;SDS011;67034;43.226;27.932;2023-04-01T10:53:38;21.38;;;8.73;;
77838;SDS011;67034;43.226;27.932;2023-04-01T10:59:15;25.10;;;9.80;;
77838;SDS011;67034;43.226;27.932;2023-04-01T11:04:55;18.35;;;8.25;;
77838;SDS011;67034;43.226;27.932;2023-04-01T11:08:10;21.98;;;9.60;;
77838;SDS011;67034;43.226;27.932;2023-04-01T11:17:14;28.83;;;9.85;;
77838;SDS011;67034;43.226;27.932;2023-04-01T11:20:13;16.48;;;8.60;;
77838;SDS011;67034;43.226;27.932;2023-04-01T11:23:19;24.35;;;8.48;;
77838;SDS011;67034;43.226;27.932;2023-04-01T11:25:55;15.43;;;7.65;;
77838;SDS011;67034;43.226;27.932;2023-04-01T11:28:42;12.38;;;6.72;;
77838;SDS011;67034;43.226;27.932;2023-04-01T11:31:36;10.77;;;5.80;;
77838;SDS011;67034;43.226;27.932;2023-04-01T11:34:20;11.50;;;5.65;;
77838;SDS011;67034;43.226;27.932;2023-04-01T11:37:05;11.88;;;6.45;;
77838;SDS011;67034;43.226;27.932;2023-04-01T11:39:41;8.00;;;5.22;;
77838;SDS011;67034;43.226;27.932;2023-04-01T11:42:15;18.33;;;8.50;;
77838;SDS011;67034;43.226;27.932;2023-04-01T11:44:51;17.35;;;6.38;;
77838;SDS011;67034;43.226;27.932;2023-04-01T11:47:38;18.45;;;6.95;;
77838;SDS011;67034;43.226;27.932;2023-04-01T11:50:30;12.93;;;5.57;;
77838;SDS011;67034;43.226;27.932;2023-04-01T11:56:00;11.40;;;5.00;;
77838;SDS011;67034;43.226;27.932;2023-04-01T11:58:36;9.77;;;4.93;;
77838;SDS011;67034;43.226;27.932;2023-04-01T12:06:52;10.13;;;5.70;;
77838;SDS011;67034;43.226;27.932;2023-04-01T12:09:29;14.18;;;5.63;;
77838;SDS011;67034;43.226;27.932;2023-04-01T12:12:03;10.70;;;6.45;;
77838;SDS011;67034;43.226;27.932;2023-04-01T12:14:41;11.15;;;5.03;;
77838;SDS011;67034;43.226;27.932;2023-04-01T12:17:17;12.27;;;4.88;;
77838;SDS011;67034;43.226;27.932;2023-04-01T12:19:51;21.27;;;7.40;;
77838;SDS011;67034;43.226;27.932;2023-04-01T12:22:26;8.15;;;4.63;;
77838;SDS011;67034;43.226;27.932;2023-04-01T12:25:03;8.60;;;4.55;;
77838;SDS011;67034;43.226;27.932;2023-04-01T12:27:42;12.40;;;4.80;;
77838;SDS011;67034;43.226;27.932;2023-04-01T12:30:30;12.10;;;5.90;;
77838;SDS011;67034;43.226;27.932;2023-04-01T12:33:20;13.40;;;5.22;;
77838;SDS011;67034;43.226;27.932;2023-04-01T12:35:59;12.68;;;5.65;;
77838;SDS011;67034;43.226;27.932;2023-04-01T12:38:38;14.00;;;5.70;;
77838;SDS011;67034;43.226;27.932;2023-04-01T12:41:14;12.93;;;5.32;;
77838;SDS011;67034;43.226;27.932;2023-04-01T12:43:56;16.27;;;6.72;;
77838;SDS011;67034;43.226;27.932;2023-04-01T12:46:53;12.27;;;5.43;;
77838;SDS011;67034;43.226;27.932;2023-04-01T12:52:34;14.27;;;7.32;;
77838;SDS011;67034;43.226;27.932;2023-04-01T13:01:21;12.45;;;6.63;;
77838;SDS011;67034;43.226;27.932;2023-04-01T13:03:56;11.07;;;5.32;;
77838;SDS011;67034;43.226;27.932;2023-04-01T13:09:35;14.27;;;6.35;;
77838;SDS011;67034;43.226;27.932;2023-04-01T13:12:18;14.85;;;6.78;;
77838;SDS011;67034;43.226;27.932;2023-04-01T13:14:59;16.50;;;7.43;;
77838;SDS011;67034;43.226;27.932;2023-04-01T13:17:39;10.10;;;6.30;;
77838;SDS011;67034;43.226;27.932;2023-04-01T13:20:14;10.35;;;6.15;;
77838;SDS011;67034;43.226;27.932;2023-04-01T13:22:49;14.57;;;6.75;;
77838;SDS011;67034;43.226;27.932;2023-04-01T13:25:24;17.67;;;6.95;;
77838;SDS011;67034;43.226;27.932;2023-04-01T13:27:58;11.43;;;6.63;;
77838;SDS011;67034;43.226;27.932;2023-04-01T13:30:30;15.75;;;8.23;;
77838;SDS011;67034;43.226;27.932;2023-04-01T13:33:01;17.42;;;6.50;;
77838;SDS011;67034;43.226;27.932;2023-04-01T13:35:36;21.15;;;8.73;;
77838;SDS011;67034;43.226;27.932;2023-04-01T13:38:18;17.77;;;6.63;;
77838;SDS011;67034;43.226;27.932;2023-04-01T13:41:03;23.63;;;9.02;;
77838;SDS011;67034;43.226;27.932;2023-04-01T13:43:36;29.90;;;11.10;;
77838;SDS011;67034;43.226;27.932;2023-04-01T13:46:22;16.23;;;7.82;;
77838;SDS011;67034;43.226;27.932;2023-04-01T13:49:06;15.05;;;7.57;;
77838;SDS011;67034;43.226;27.932;2023-04-01T13:57:59;23.77;;;9.70;;
77838;SDS011;67034;43.226;27.932;2023-04-01T14:00:43;18.35;;;9.88;;
77838;SDS011;67034;43.226;27.932;2023-04-01T14:03:20;18.77;;;8.82;;
77838;SDS011;67034;43.226;27.932;2023-04-01T14:05:56;11.80;;;6.05;;
77838;SDS011;67034;43.226;27.932;2023-04-01T14:08:35;13.15;;;5.60;;
77838;SDS011;67034;43.226;27.932;2023-04-01T14:11:22;12.60;;;4.97;;
77838;SDS011;67034;43.226;27.932;2023-04-01T14:13:56;8.77;;;4.07;;
77838;SDS011;67034;43.226;27.932;2023-04-01T14:16:40;10.57;;;5.10;;
77838;SDS011;67034;43.226;27.932;2023-04-01T14:19:27;14.95;;;5.28;;
77838;SDS011;67034;43.226;27.932;2023-04-01T14:22:05;9.00;;;4.68;;
77838;SDS011;67034;43.226;27.932;2023-04-01T14:24:43;12.43;;;5.13;;
77838;SDS011;67034;43.226;27.932;2023-04-01T14:27:31;11.18;;;5.35;;
77838;SDS011;67034;43.226;27.932;2023-04-01T14:33:17;12.40;;;4.90;;
77838;SDS011;67034;43.226;27.932;2023-04-01T14:35:55;11.05;;;4.72;;
77838;SDS011;67034;43.226;27.932;2023-04-01T14:38:43;13.40;;;5.13;;
77838;SDS011;67034;43.226;27.932;2023-04-01T14:41:18;12.82;;;6.00;;
77838;SDS011;67034;43.226;27.932;2023-04-01T14:49:52;14.60;;;6.18;;
77838;SDS011;67034;43.226;27.932;2023-04-01T14:52:27;13.63;;;5.22;;
77838;SDS011;67034;43.226;27.932;2023-04-01T14:54:56;15.90;;;5.47;;
77838;SDS011;67034;43.226;27.932;2023-04-01T14:57:24;10.63;;;4.72;;
77838;SDS011;67034;43.226;27.932;2023-04-01T14:59:52;10.65;;;5.47;;
77838;SDS011;67034;43.226;27.932;2023-04-01T15:02:29;8.77;;;4.78;;
77838;SDS011;67034;43.226;27.932;2023-04-01T15:05:07;12.02;;;5.55;;
77838;SDS011;67034;43.226;27.932;2023-04-01T15:07:52;10.40;;;5.05;;
77838;SDS011;67034;43.226;27.932;2023-04-01T15:10:47;12.70;;;4.65;;
77838;SDS011;67034;43.226;27.932;2023-04-01T15:13:24;11.98;;;5.95;;
77838;SDS011;67034;43.226;27.932;2023-04-01T15:16:05;20.08;;;6.88;;
77838;SDS011;67034;43.226;27.932;2023-04-01T15:18:42;17.65;;;6.38;;
77838;SDS011;67034;43.226;27.932;2023-04-01T15:21:20;20.83;;;6.78;;
77838;SDS011;67034;43.226;27.932;2023-04-01T15:24:06;17.80;;;7.93;;
77838;SDS011;67034;43.226;27.932;2023-04-01T15:26:42;15.38;;;6.68;;
77838;SDS011;67034;43.226;27.932;2023-04-01T15:29:32;12.52;;;5.75;;
77838;SDS011;67034;43.226;27.932;2023-04-01T15:32:21;20.13;;;5.97;;
77838;SDS011;67034;43.226;27.932;2023-04-01T15:34:56;13.18;;;6.10;;
77838;SDS011;67034;43.226;27.932;2023-04-01T15:37:31;11.73;;;5.53;;
77838;SDS011;67034;43.226;27.932;2023-04-01T15:42:43;9.80;;;4.60;;
77838;SDS011;67034;43.226;27.932;2023-04-01T15:45:18;10.43;;;5.03;;
77838;SDS011;67034;43.226;27.932;2023-04-01T15:48:01;10.77;;;5.70;;
77838;SDS011;67034;43.226;27.932;2023-04-01T15:53:29;11.65;;;5.60;;
77838;SDS011;67034;43.226;27.932;2023-04-01T15:56:06;10.07;;;4.97;;
77838;SDS011;67034;43.226;27.932;2023-04-01T15:58:47;9.88;;;5.00;;
77838;SDS011;67034;43.226;27.932;2023-04-01T16:01:31;11.73;;;4.55;;
77838;SDS011;67034;43.226;27.932;2023-04-01T16:04:07;11.45;;;4.82;;
77838;SDS011;67034;43.226;27.932;2023-04-01T16:06:57;13.95;;;5.15;;
77838;SDS011;67034;43.226;27.932;2023-04-01T16:09:49;9.40;;;5.18;;
77838;SDS011;67034;43.226;27.932;2023-04-01T16:12:29;12.27;;;5.32;;
77838;SDS011;67034;43.226;27.932;2023-04-01T16:15:08;12.35;;;4.75;;
77838;SDS011;67034;43.226;27.932;2023-04-01T16:17:53;9.13;;;5.00;;
77838;SDS011;67034;43.226;27.932;2023-04-01T16:20:41;15.50;;;5.20;;
77838;SDS011;67034;43.226;27.932;2023-04-01T16:23:11;9.38;;;4.75;;
77838;SDS011;67034;43.226;27.932;2023-04-01T16:25:45;11.43;;;4.90;;
77838;SDS011;67034;43.226;27.932;2023-04-01T16:28:19;15.48;;;5.75;;
77838;SDS011;67034;43.226;27.932;2023-04-01T16:30:54;11.93;;;5.13;;
77838;SDS011;67034;43.226;27.932;2023-04-01T16:33:23;9.93;;;5.72;;
77838;SDS011;67034;43.226;27.932;2023-04-01T16:35:59;10.55;;;4.82;;
77838;SDS011;67034;43.226;27.932;2023-04-01T16:38:33;8.23;;;4.57;;
77838;SDS011;67034;43.226;27.932;2023-04-01T16:41:11;10.27;;;5.07;;
77838;SDS011;67034;43.226;27.932;2023-04-01T16:43:42;13.85;;;4.60;;
77838;SDS011;67034;43.226;27.932;2023-04-01T16:51:58;9.90;;;5.25;;
77838;SDS011;67034;43.226;27.932;2023-04-01T16:54:39;8.48;;;5.55;;
77838;SDS011;67034;43.226;27.932;2023-04-01T16:57:14;11.27;;;6.25;;
77838;SDS011;67034;43.226;27.932;2023-04-01T16:59:53;14.75;;;5.15;;
77838;SDS011;67034;43.226;27.932;2023-04-01T17:02:25;12.40;;;5.47;;